SFR134 FACT-FAPE
Flight info
| Callsign | SFR134 |
|---|---|
| Flight time | 1h 9m |
| Altitude | 33000 |
| Route | OKTED1C OKTED UQ12 XUGOL UQ56 OKSET DCT PEV DCT |
| Aircraft | B738/M-V/N |
Departure
| Time | 2026-04-26 19:24 |
|---|---|
| Airport | Cape Town International Airport (FACT) |
Arrival
| Time | 2026-04-26 20:34 |
|---|---|
| Airport | Chief Dawid Stuurman International Airport (FAPE) |
| Time | Latitude | Longitude | Altitude | Speed | Heading |
|---|---|---|---|---|---|
| 2026-04-26 18:48 | -33.97034 | 18.59852 | 153 ft | 0 kts | 256° |
| 2026-04-26 18:49 | -33.97035 | 18.59853 | 153 ft | 0 kts | 256° |
| 2026-04-26 18:49 | -33.97032 | 18.59851 | 154 ft | 2 kts | 255° |
| 2026-04-26 18:49 | -33.97035 | 18.59851 | 153 ft | 0 kts | 255° |
| 2026-04-26 19:16 | -33.97031 | 18.59872 | 126 ft | 4 kts | 261° |
| 2026-04-26 19:16 | -33.97028 | 18.59904 | 153 ft | 4 kts | 274° |
| 2026-04-26 19:16 | -33.97034 | 18.59935 | 153 ft | 4 kts | 306° |
| 2026-04-26 19:16 | -33.97048 | 18.59948 | 153 ft | 1 kts | 346° |
| 2026-04-26 19:17 | -33.97051 | 18.59949 | 153 ft | 0 kts | 346° |
| 2026-04-26 19:19 | -33.97035 | 18.59944 | 153 ft | 6 kts | 346° |
| 2026-04-26 19:20 | -33.96996 | 18.59932 | 153 ft | 6 kts | 345° |
| 2026-04-26 19:20 | -33.96971 | 18.59924 | 153 ft | 6 kts | 347° |
| 2026-04-26 19:20 | -33.96917 | 18.59905 | 153 ft | 7 kts | 345° |
| 2026-04-26 19:20 | -33.96847 | 18.59883 | 153 ft | 14 kts | 345° |
| 2026-04-26 19:21 | -33.96744 | 18.59849 | 153 ft | 16 kts | 345° |
| 2026-04-26 19:21 | -33.96639 | 18.59815 | 153 ft | 15 kts | 344° |
| 2026-04-26 19:21 | -33.96537 | 18.59786 | 153 ft | 15 kts | 346° |
| 2026-04-26 19:21 | -33.96438 | 18.59764 | 153 ft | 14 kts | 350° |
| 2026-04-26 19:22 | -33.96344 | 18.59744 | 153 ft | 13 kts | 351° |
| 2026-04-26 19:22 | -33.96253 | 18.59726 | 153 ft | 13 kts | 353° |
| 2026-04-26 19:22 | -33.96182 | 18.59782 | 152 ft | 13 kts | 46° |
| 2026-04-26 19:22 | -33.96120 | 18.59856 | 153 ft | 12 kts | 45° |
| 2026-04-26 19:23 | -33.96085 | 18.59898 | 153 ft | 0 kts | 45° |
| 2026-04-26 19:23 | -33.96081 | 18.59904 | 153 ft | 5 kts | 45° |
| 2026-04-26 19:23 | -33.96043 | 18.59950 | 153 ft | 9 kts | 49° |
| 2026-04-26 19:23 | -33.96028 | 18.60012 | 153 ft | 10 kts | 130° |
| 2026-04-26 19:24 | -33.96203 | 18.60074 | 153 ft | 56 kts | 165° |
| 2026-04-26 19:24 | -33.96797 | 18.60262 | 156 ft | 119 kts | 166° |
| 2026-04-26 19:24 | -33.98754 | 18.60938 | 1052 ft | 156 kts | 169° |
| 2026-04-26 19:25 | -33.99816 | 18.61375 | 1704 ft | 164 kts | 165° |
| 2026-04-26 19:25 | -34.00519 | 18.61703 | 2138 ft | 168 kts | 165° |
| 2026-04-26 19:25 | -34.02143 | 18.62437 | 2490 ft | 202 kts | 164° |
| 2026-04-26 19:25 | -34.03530 | 18.63057 | 2742 ft | 221 kts | 162° |
| 2026-04-26 19:26 | -34.04763 | 18.64252 | 3192 ft | 243 kts | 125° |
| 2026-04-26 19:26 | -34.05185 | 18.66309 | 3566 ft | 272 kts | 89° |
| 2026-04-26 19:26 | -34.04882 | 18.68601 | 4229 ft | 280 kts | 81° |
| 2026-04-26 19:26 | -34.04518 | 18.70916 | 5004 ft | 282 kts | 82° |
| 2026-04-26 19:27 | -34.04209 | 18.73277 | 5647 ft | 290 kts | 86° |
| 2026-04-26 19:27 | -34.04071 | 18.75704 | 6371 ft | 290 kts | 92° |
| 2026-04-26 19:27 | -34.04129 | 18.78145 | 7050 ft | 294 kts | 97° |
| 2026-04-26 19:27 | -34.04357 | 18.80626 | 7619 ft | 301 kts | 101° |
| 2026-04-26 19:28 | -34.04716 | 18.83127 | 8320 ft | 304 kts | 104° |
| 2026-04-26 19:28 | -34.05164 | 18.85626 | 9031 ft | 307 kts | 106° |
| 2026-04-26 19:28 | -34.05677 | 18.88144 | 9700 ft | 312 kts | 108° |
| 2026-04-26 19:28 | -34.06237 | 18.90686 | 10319 ft | 317 kts | 108° |
| 2026-04-26 19:29 | -34.06847 | 18.93326 | 10521 ft | 338 kts | 108° |
| 2026-04-26 19:29 | -34.07513 | 18.96129 | 10759 ft | 357 kts | 108° |
| 2026-04-26 19:29 | -34.08214 | 18.99040 | 11251 ft | 366 kts | 108° |
| 2026-04-26 19:29 | -34.08924 | 19.01966 | 11896 ft | 370 kts | 108° |
| 2026-04-26 19:30 | -34.09652 | 19.04952 | 12581 ft | 374 kts | 107° |
| 2026-04-26 19:30 | -34.10393 | 19.07981 | 13234 ft | 379 kts | 107° |
| 2026-04-26 19:30 | -34.11143 | 19.11050 | 13888 ft | 384 kts | 107° |
| 2026-04-26 19:30 | -34.11655 | 19.13145 | 14286 ft | 388 kts | 107° |
| 2026-04-26 19:31 | -34.12683 | 19.17352 | 14885 ft | 400 kts | 107° |
| 2026-04-26 19:31 | -34.13475 | 19.20597 | 15380 ft | 407 kts | 107° |
| 2026-04-26 19:31 | -34.14282 | 19.23905 | 15896 ft | 414 kts | 106° |
| 2026-04-26 19:31 | -34.14557 | 19.25038 | 16043 ft | 418 kts | 107° |
| 2026-04-26 19:32 | -34.14621 | 19.25301 | 16081 ft | 419 kts | 107° |
| 2026-04-26 19:33 | -34.14887 | 19.26391 | 16244 ft | 421 kts | 107° |
| 2026-04-26 19:33 | -34.15716 | 19.29798 | 16849 ft | 426 kts | 106° |
| 2026-04-26 19:33 | -34.16556 | 19.33259 | 17333 ft | 434 kts | 106° |
| 2026-04-26 19:33 | -34.17410 | 19.36785 | 17819 ft | 442 kts | 106° |
| 2026-04-26 19:34 | -34.18279 | 19.40377 | 18352 ft | 448 kts | 106° |
| 2026-04-26 19:34 | -34.19139 | 19.43930 | 19303 ft | 438 kts | 106° |
| 2026-04-26 19:34 | -34.19999 | 19.47490 | 19693 ft | 448 kts | 106° |
| 2026-04-26 19:34 | -34.20882 | 19.51148 | 19935 ft | 459 kts | 106° |
| 2026-04-26 19:35 | -34.21616 | 19.54926 | 20341 ft | 464 kts | 97° |
| 2026-04-26 19:35 | -34.21880 | 19.58816 | 20767 ft | 466 kts | 85° |
| 2026-04-26 19:35 | -34.21681 | 19.62734 | 21166 ft | 470 kts | 80° |
| 2026-04-26 19:35 | -34.21381 | 19.66637 | 21564 ft | 475 kts | 79° |
| 2026-04-26 19:36 | -34.21053 | 19.70689 | 21977 ft | 481 kts | 79° |
| 2026-04-26 19:36 | -34.20841 | 19.73366 | 22251 ft | 485 kts | 79° |
| 2026-04-26 19:36 | -34.20433 | 19.78788 | 22772 ft | 494 kts | 80° |
| 2026-04-26 19:36 | -34.20136 | 19.82945 | 23063 ft | 501 kts | 79° |
| 2026-04-26 19:37 | -34.19843 | 19.87164 | 23442 ft | 506 kts | 79° |
| 2026-04-26 19:37 | -34.19551 | 19.91416 | 23838 ft | 510 kts | 79° |
| 2026-04-26 19:37 | -34.19256 | 19.95700 | 24212 ft | 513 kts | 79° |
| 2026-04-26 19:37 | -34.18956 | 20.00010 | 24564 ft | 517 kts | 79° |
| 2026-04-26 19:38 | -34.18651 | 20.04357 | 24898 ft | 521 kts | 79° |
| 2026-04-26 19:38 | -34.18341 | 20.08728 | 25221 ft | 525 kts | 79° |
| 2026-04-26 19:38 | -34.18026 | 20.13137 | 25552 ft | 528 kts | 79° |
| 2026-04-26 19:38 | -34.17710 | 20.17568 | 25888 ft | 530 kts | 79° |
| 2026-04-26 19:39 | -34.17532 | 20.22035 | 26255 ft | 536 kts | 85° |
| 2026-04-26 19:39 | -34.17590 | 20.26565 | 26553 ft | 542 kts | 88° |
| 2026-04-26 19:39 | -34.17743 | 20.31132 | 26833 ft | 547 kts | 89° |
| 2026-04-26 19:39 | -34.17928 | 20.35736 | 27142 ft | 550 kts | 89° |
| 2026-04-26 19:40 | -34.18108 | 20.40365 | 27465 ft | 553 kts | 89° |
| 2026-04-26 19:40 | -34.18267 | 20.45016 | 27756 ft | 556 kts | 89° |
| 2026-04-26 19:40 | -34.18404 | 20.49698 | 28027 ft | 558 kts | 88° |
| 2026-04-26 19:40 | -34.18525 | 20.54387 | 28401 ft | 559 kts | 88° |
| 2026-04-26 19:41 | -34.18636 | 20.59093 | 28681 ft | 562 kts | 88° |
| 2026-04-26 19:41 | -34.18743 | 20.63831 | 28931 ft | 566 kts | 88° |
| 2026-04-26 19:41 | -34.18849 | 20.68597 | 29202 ft | 570 kts | 88° |
| 2026-04-26 19:41 | -34.18919 | 20.71773 | 29373 ft | 572 kts | 88° |
| 2026-04-26 19:42 | -34.19063 | 20.78214 | 29725 ft | 575 kts | 88° |
| 2026-04-26 19:42 | -34.19171 | 20.83049 | 30049 ft | 578 kts | 88° |
| 2026-04-26 19:42 | -34.19278 | 20.87914 | 30260 ft | 580 kts | 88° |
| 2026-04-26 19:42 | -34.19384 | 20.92789 | 30534 ft | 581 kts | 88° |
| 2026-04-26 19:43 | -34.19488 | 20.97667 | 30828 ft | 581 kts | 88° |
| 2026-04-26 19:43 | -34.19590 | 21.02544 | 31131 ft | 581 kts | 88° |
| 2026-04-26 19:43 | -34.19689 | 21.07418 | 31439 ft | 580 kts | 88° |
| 2026-04-26 19:43 | -34.19786 | 21.12290 | 31776 ft | 579 kts | 88° |
| 2026-04-26 19:44 | -34.19881 | 21.17145 | 32094 ft | 578 kts | 88° |
| 2026-04-26 19:44 | -34.19974 | 21.21981 | 32533 ft | 574 kts | 88° |
| 2026-04-26 19:44 | -34.20063 | 21.26716 | 32979 ft | 570 kts | 88° |
| 2026-04-26 19:44 | -34.20151 | 21.31571 | 33019 ft | 573 kts | 88° |
| 2026-04-26 19:45 | -34.20321 | 21.41109 | 33016 ft | 569 kts | 88° |
| 2026-04-26 19:45 | -34.20481 | 21.50606 | 33024 ft | 565 kts | 88° |
| 2026-04-26 19:46 | -34.20630 | 21.60104 | 33018 ft | 566 kts | 88° |
| 2026-04-26 19:46 | -34.20774 | 21.69623 | 33024 ft | 568 kts | 88° |
| 2026-04-26 19:47 | -34.20890 | 21.77614 | 33019 ft | 568 kts | 88° |
| 2026-04-26 19:47 | -34.21043 | 21.88690 | 33005 ft | 567 kts | 88° |
| 2026-04-26 19:48 | -34.21167 | 21.98209 | 33004 ft | 567 kts | 88° |
| 2026-04-26 19:48 | -34.21283 | 22.07727 | 33040 ft | 567 kts | 87° |
| 2026-04-26 19:49 | -34.21390 | 22.17264 | 32967 ft | 567 kts | 87° |
| 2026-04-26 19:49 | -34.21491 | 22.26771 | 32976 ft | 565 kts | 87° |
| 2026-04-26 19:50 | -34.21585 | 22.36258 | 32977 ft | 564 kts | 87° |
| 2026-04-26 19:50 | -34.21672 | 22.45733 | 32937 ft | 563 kts | 87° |
| 2026-04-26 19:51 | -34.21753 | 22.55172 | 32988 ft | 561 kts | 87° |
| 2026-04-26 19:51 | -34.21824 | 22.64194 | 32988 ft | 560 kts | 87° |
| 2026-04-26 19:52 | -34.21891 | 22.73601 | 32990 ft | 560 kts | 86° |
| 2026-04-26 19:52 | -34.21950 | 22.82948 | 32966 ft | 560 kts | 86° |
| 2026-04-26 19:53 | -34.22002 | 22.92413 | 32988 ft | 560 kts | 86° |
| 2026-04-26 19:53 | -34.22047 | 23.01769 | 32988 ft | 561 kts | 86° |
| 2026-04-26 19:54 | -34.22066 | 23.06494 | 32732 ft | 565 kts | 86° |
| 2026-04-26 19:54 | -34.22084 | 23.11310 | 32114 ft | 566 kts | 86° |
| 2026-04-26 19:54 | -34.22101 | 23.15994 | 31631 ft | 563 kts | 86° |
| 2026-04-26 19:54 | -34.22117 | 23.20768 | 31225 ft | 558 kts | 86° |
| 2026-04-26 19:55 | -34.22132 | 23.25383 | 30801 ft | 555 kts | 86° |
| 2026-04-26 19:55 | -34.22144 | 23.30090 | 30365 ft | 551 kts | 85° |
| 2026-04-26 19:55 | -34.22154 | 23.34646 | 29892 ft | 548 kts | 85° |
| 2026-04-26 19:55 | -34.22161 | 23.39237 | 29392 ft | 544 kts | 85° |
| 2026-04-26 19:56 | -34.22167 | 23.43792 | 28873 ft | 540 kts | 85° |
| 2026-04-26 19:56 | -34.22171 | 23.48301 | 28456 ft | 534 kts | 85° |
| 2026-04-26 19:56 | -34.22174 | 23.52768 | 28009 ft | 530 kts | 85° |
| 2026-04-26 19:56 | -34.22174 | 23.57203 | 27569 ft | 525 kts | 85° |
| 2026-04-26 19:57 | -34.22173 | 23.61595 | 27123 ft | 521 kts | 84° |
| 2026-04-26 19:57 | -34.22170 | 23.65965 | 26685 ft | 518 kts | 84° |
| 2026-04-26 19:57 | -34.22166 | 23.70293 | 26253 ft | 514 kts | 84° |
| 2026-04-26 19:57 | -34.22160 | 23.74600 | 25804 ft | 511 kts | 84° |
| 2026-04-26 19:58 | -34.22152 | 23.78877 | 25333 ft | 508 kts | 84° |
| 2026-04-26 19:58 | -34.22143 | 23.83130 | 24919 ft | 504 kts | 84° |
| 2026-04-26 19:58 | -34.22134 | 23.87352 | 24473 ft | 502 kts | 84° |
| 2026-04-26 19:58 | -34.22122 | 23.91551 | 24030 ft | 499 kts | 84° |
| 2026-04-26 19:59 | -34.22109 | 23.95732 | 23588 ft | 496 kts | 84° |
| 2026-04-26 19:59 | -34.22095 | 23.99897 | 23082 ft | 494 kts | 83° |
| 2026-04-26 19:59 | -34.22080 | 24.04022 | 22624 ft | 489 kts | 83° |
| 2026-04-26 19:59 | -34.22064 | 24.08116 | 22137 ft | 485 kts | 84° |
| 2026-04-26 20:00 | -34.22053 | 24.10805 | 21877 ft | 481 kts | 83° |
| 2026-04-26 20:00 | -34.22030 | 24.16173 | 21324 ft | 475 kts | 83° |
| 2026-04-26 20:00 | -34.22010 | 24.20088 | 20916 ft | 471 kts | 83° |
| 2026-04-26 20:00 | -34.21996 | 24.22750 | 20638 ft | 468 kts | 83° |
| 2026-04-26 20:01 | -34.21974 | 24.26669 | 20228 ft | 464 kts | 83° |
| 2026-04-26 20:01 | -34.21951 | 24.30549 | 19812 ft | 460 kts | 83° |
| 2026-04-26 20:01 | -34.21926 | 24.34403 | 19384 ft | 457 kts | 82° |
| 2026-04-26 20:01 | -34.21901 | 24.38230 | 19012 ft | 454 kts | 82° |
| 2026-04-26 20:02 | -34.21875 | 24.42032 | 18554 ft | 451 kts | 82° |
| 2026-04-26 20:02 | -34.21839 | 24.47024 | 17972 ft | 447 kts | 82° |
| 2026-04-26 20:02 | -34.21819 | 24.49555 | 17677 ft | 444 kts | 82° |
| 2026-04-26 20:02 | -34.21800 | 24.52012 | 17393 ft | 441 kts | 82° |
| 2026-04-26 20:03 | -34.21762 | 24.56938 | 16845 ft | 435 kts | 82° |
| 2026-04-26 20:03 | -34.21732 | 24.60524 | 16453 ft | 431 kts | 82° |
| 2026-04-26 20:03 | -34.21559 | 24.64092 | 16035 ft | 417 kts | 70° |
| 2026-04-26 20:03 | -34.20645 | 24.67293 | 15661 ft | 392 kts | 51° |
| 2026-04-26 20:04 | -34.19281 | 24.70072 | 15316 ft | 380 kts | 46° |
| 2026-04-26 20:04 | -34.17851 | 24.72730 | 14953 ft | 375 kts | 45° |
| 2026-04-26 20:04 | -34.16415 | 24.75339 | 14607 ft | 370 kts | 45° |
| 2026-04-26 20:04 | -34.14987 | 24.77904 | 14271 ft | 366 kts | 45° |
| 2026-04-26 20:05 | -34.13570 | 24.80431 | 13932 ft | 362 kts | 45° |
| 2026-04-26 20:05 | -34.12159 | 24.82931 | 13559 ft | 358 kts | 45° |
| 2026-04-26 20:05 | -34.10775 | 24.85412 | 13219 ft | 354 kts | 45° |
| 2026-04-26 20:05 | -34.09414 | 24.87866 | 12901 ft | 350 kts | 45° |
| 2026-04-26 20:06 | -34.08072 | 24.90288 | 12583 ft | 345 kts | 45° |
| 2026-04-26 20:06 | -34.06743 | 24.92680 | 12263 ft | 341 kts | 45° |
| 2026-04-26 20:06 | -34.05427 | 24.95042 | 11966 ft | 337 kts | 45° |
| 2026-04-26 20:06 | -34.04124 | 24.97375 | 11665 ft | 333 kts | 45° |
| 2026-04-26 20:07 | -34.02833 | 24.99677 | 11376 ft | 330 kts | 45° |
| 2026-04-26 20:07 | -34.01573 | 25.01910 | 11092 ft | 326 kts | 45° |
| 2026-04-26 20:07 | -34.00297 | 25.04151 | 10822 ft | 322 kts | 45° |
| 2026-04-26 20:07 | -33.99033 | 25.06358 | 10538 ft | 319 kts | 45° |
| 2026-04-26 20:08 | -33.97781 | 25.08532 | 10378 ft | 311 kts | 45° |
| 2026-04-26 20:08 | -33.96558 | 25.10661 | 10267 ft | 308 kts | 45° |
| 2026-04-26 20:08 | -33.95345 | 25.12771 | 10160 ft | 305 kts | 45° |
| 2026-04-26 20:08 | -33.94133 | 25.14875 | 9915 ft | 308 kts | 45° |
| 2026-04-26 20:09 | -33.92890 | 25.16994 | 9652 ft | 312 kts | 45° |
| 2026-04-26 20:09 | -33.91627 | 25.19122 | 9357 ft | 311 kts | 45° |
| 2026-04-26 20:09 | -33.90385 | 25.21194 | 9102 ft | 308 kts | 45° |
| 2026-04-26 20:09 | -33.89139 | 25.23268 | 8832 ft | 304 kts | 45° |
| 2026-04-26 20:10 | -33.87881 | 25.25340 | 8588 ft | 301 kts | 45° |
| 2026-04-26 20:10 | -33.86663 | 25.27337 | 8320 ft | 299 kts | 45° |
| 2026-04-26 20:10 | -33.85438 | 25.29339 | 8066 ft | 296 kts | 45° |
| 2026-04-26 20:10 | -33.84233 | 25.31339 | 7806 ft | 295 kts | 49° |
| 2026-04-26 20:11 | -33.83149 | 25.33449 | 7544 ft | 297 kts | 53° |
| 2026-04-26 20:11 | -33.82094 | 25.35564 | 7313 ft | 294 kts | 52° |
| 2026-04-26 20:11 | -33.81027 | 25.37663 | 7048 ft | 293 kts | 52° |
| 2026-04-26 20:12 | -33.78880 | 25.41805 | 6538 ft | 290 kts | 52° |
| 2026-04-26 20:12 | -33.77806 | 25.43845 | 6298 ft | 288 kts | 52° |
| 2026-04-26 20:12 | -33.76727 | 25.45871 | 6044 ft | 287 kts | 52° |
| 2026-04-26 20:12 | -33.75639 | 25.47876 | 5797 ft | 285 kts | 52° |
| 2026-04-26 20:13 | -33.74548 | 25.49862 | 5551 ft | 285 kts | 52° |
| 2026-04-26 20:13 | -33.73453 | 25.51841 | 5295 ft | 284 kts | 52° |
| 2026-04-26 20:13 | -33.72356 | 25.53804 | 5069 ft | 282 kts | 52° |
| 2026-04-26 20:13 | -33.71466 | 25.55903 | 4818 ft | 286 kts | 77° |
| 2026-04-26 20:14 | -33.71606 | 25.58243 | 4601 ft | 283 kts | 114° |
| 2026-04-26 20:14 | -33.72749 | 25.60033 | 4373 ft | 271 kts | 149° |
| 2026-04-26 20:14 | -33.74340 | 25.61219 | 4209 ft | 265 kts | 145° |
| 2026-04-26 20:14 | -33.75691 | 25.62676 | 4011 ft | 263 kts | 140° |
| 2026-04-26 20:15 | -33.77020 | 25.64160 | 3804 ft | 259 kts | 140° |
| 2026-04-26 20:15 | -33.78332 | 25.65614 | 3617 ft | 254 kts | 140° |
| 2026-04-26 20:15 | -33.79623 | 25.67046 | 3430 ft | 250 kts | 141° |
| 2026-04-26 20:15 | -33.80889 | 25.68454 | 3258 ft | 246 kts | 141° |
| 2026-04-26 20:16 | -33.82136 | 25.69846 | 3077 ft | 243 kts | 141° |
| 2026-04-26 20:16 | -33.83295 | 25.71141 | 2924 ft | 238 kts | 141° |
| 2026-04-26 20:16 | -33.84428 | 25.72411 | 2780 ft | 232 kts | 141° |
| 2026-04-26 20:16 | -33.85573 | 25.73696 | 2669 ft | 223 kts | 142° |
| 2026-04-26 20:17 | -33.86680 | 25.74941 | 2530 ft | 212 kts | 142° |
| 2026-04-26 20:17 | -33.87701 | 25.76089 | 2380 ft | 201 kts | 143° |
| 2026-04-26 20:17 | -33.88838 | 25.76902 | 2196 ft | 181 kts | 179° |
| 2026-04-26 20:17 | -33.89606 | 25.76778 | 2085 ft | 162 kts | 212° |
| 2026-04-26 20:18 | -33.90744 | 25.75596 | 1993 ft | 166 kts | 218° |
| 2026-04-26 20:18 | -33.91587 | 25.74671 | 1945 ft | 165 kts | 231° |
| 2026-04-26 20:18 | -33.92272 | 25.73625 | 1885 ft | 152 kts | 234° |
| 2026-04-26 20:18 | -33.92845 | 25.72611 | 1901 ft | 141 kts | 238° |
| 2026-04-26 20:19 | -33.93358 | 25.71641 | 1923 ft | 137 kts | 240° |
| 2026-04-26 20:19 | -33.93865 | 25.70665 | 1868 ft | 139 kts | 241° |
| 2026-04-26 20:19 | -33.94373 | 25.69682 | 1719 ft | 137 kts | 241° |
| 2026-04-26 20:19 | -33.94867 | 25.68727 | 1530 ft | 131 kts | 240° |
| 2026-04-26 20:20 | -33.95344 | 25.67803 | 1367 ft | 130 kts | 239° |
| 2026-04-26 20:20 | -33.95810 | 25.66904 | 1187 ft | 122 kts | 240° |
| 2026-04-26 20:20 | -33.96253 | 25.66045 | 1038 ft | 123 kts | 240° |
| 2026-04-26 20:20 | -33.96691 | 25.65200 | 894 ft | 116 kts | 239° |
| 2026-04-26 20:21 | -33.97132 | 25.64347 | 727 ft | 126 kts | 238° |
| 2026-04-26 20:21 | -33.97599 | 25.63444 | 589 ft | 126 kts | 238° |
| 2026-04-26 20:21 | -33.98057 | 25.62576 | 391 ft | 123 kts | 238° |
| 2026-04-26 20:21 | -33.98493 | 25.61683 | 390 ft | 126 kts | 238° |
| 2026-04-26 20:22 | -33.98943 | 25.60817 | 889 ft | 121 kts | 238° |
| 2026-04-26 20:22 | -33.99380 | 25.60005 | 1543 ft | 109 kts | 239° |
| 2026-04-26 20:22 | -33.99796 | 25.59230 | 2031 ft | 117 kts | 238° |
| 2026-04-26 20:22 | -34.00320 | 25.58378 | 2416 ft | 134 kts | 237° |
| 2026-04-26 20:23 | -34.00893 | 25.57425 | 2797 ft | 155 kts | 238° |
| 2026-04-26 20:23 | -34.01596 | 25.56242 | 2983 ft | 187 kts | 237° |
| 2026-04-26 20:23 | -34.02426 | 25.54924 | 2980 ft | 205 kts | 227° |
| 2026-04-26 20:23 | -34.03740 | 25.54163 | 2997 ft | 223 kts | 193° |
| 2026-04-26 20:24 | -34.05312 | 25.54428 | 2987 ft | 238 kts | 160° |
| 2026-04-26 20:24 | -34.06686 | 25.55607 | 3013 ft | 246 kts | 145° |
| 2026-04-26 20:24 | -34.07974 | 25.56982 | 3006 ft | 247 kts | 143° |
| 2026-04-26 20:24 | -34.09232 | 25.58362 | 2985 ft | 241 kts | 142° |
| 2026-04-26 20:25 | -34.10153 | 25.60013 | 2981 ft | 240 kts | 110° |
| 2026-04-26 20:25 | -34.10313 | 25.61335 | 2966 ft | 243 kts | 88° |
| 2026-04-26 20:25 | -34.09561 | 25.63876 | 2857 ft | 243 kts | 57° |
| 2026-04-26 20:25 | -34.08673 | 25.65617 | 2771 ft | 244 kts | 56° |
| 2026-04-26 20:26 | -34.07754 | 25.67343 | 2691 ft | 243 kts | 56° |
| 2026-04-26 20:26 | -34.06860 | 25.69020 | 2617 ft | 231 kts | 55° |
| 2026-04-26 20:26 | -34.06013 | 25.70610 | 2512 ft | 220 kts | 56° |
| 2026-04-26 20:26 | -34.05206 | 25.72127 | 2431 ft | 212 kts | 56° |
| 2026-04-26 20:27 | -34.04420 | 25.73619 | 2358 ft | 207 kts | 56° |
| 2026-04-26 20:27 | -34.03673 | 25.75042 | 2280 ft | 194 kts | 56° |
| 2026-04-26 20:27 | -34.02961 | 25.76399 | 2218 ft | 192 kts | 56° |
| 2026-04-26 20:27 | -34.02242 | 25.77761 | 2232 ft | 191 kts | 56° |
| 2026-04-26 20:28 | -34.01485 | 25.79095 | 2170 ft | 193 kts | 41° |
| 2026-04-26 20:28 | -34.00341 | 25.79735 | 1931 ft | 176 kts | 347° |
| 2026-04-26 20:28 | -33.99424 | 25.79110 | 1906 ft | 144 kts | 290° |
| 2026-04-26 20:28 | -33.99479 | 25.78027 | 1906 ft | 136 kts | 238° |
| 2026-04-26 20:29 | -33.99921 | 25.77025 | 1880 ft | 137 kts | 269° |
| 2026-04-26 20:29 | -33.99422 | 25.76050 | 1921 ft | 151 kts | 314° |
| 2026-04-26 20:29 | -33.98584 | 25.75255 | 1910 ft | 155 kts | 311° |
| 2026-04-26 20:29 | -33.97749 | 25.74428 | 1902 ft | 154 kts | 311° |
| 2026-04-26 20:30 | -33.96919 | 25.73629 | 1892 ft | 151 kts | 312° |
| 2026-04-26 20:30 | -33.96097 | 25.72846 | 1890 ft | 151 kts | 312° |
| 2026-04-26 20:30 | -33.95276 | 25.72074 | 1875 ft | 146 kts | 312° |
| 2026-04-26 20:30 | -33.94584 | 25.71287 | 1827 ft | 127 kts | 289° |
| 2026-04-26 20:31 | -33.94681 | 25.70381 | 1826 ft | 118 kts | 236° |
| 2026-04-26 20:31 | -33.95066 | 25.69512 | 1624 ft | 118 kts | 266° |
| 2026-04-26 20:31 | -33.94940 | 25.68560 | 1479 ft | 116 kts | 269° |
| 2026-04-26 20:31 | -33.95264 | 25.67722 | 1374 ft | 119 kts | 224° |
| 2026-04-26 20:32 | -33.95831 | 25.66989 | 1198 ft | 120 kts | 246° |
| 2026-04-26 20:32 | -33.96177 | 25.66093 | 1033 ft | 120 kts | 233° |
| 2026-04-26 20:32 | -33.96681 | 25.65302 | 888 ft | 118 kts | 245° |
| 2026-04-26 20:32 | -33.97064 | 25.64400 | 722 ft | 129 kts | 235° |
| 2026-04-26 20:33 | -33.97565 | 25.63529 | 591 ft | 127 kts | 239° |
| 2026-04-26 20:33 | -33.98031 | 25.62612 | 398 ft | 129 kts | 238° |
| 2026-04-26 20:33 | -33.98498 | 25.61705 | 236 ft | 126 kts | 237° |
| 2026-04-26 20:33 | -33.98916 | 25.60908 | 215 ft | 89 kts | 238° |
| 2026-04-26 20:34 | -33.99128 | 25.60503 | 209 ft | 26 kts | 237° |
| 2026-04-26 20:34 | -33.99178 | 25.60406 | 206 ft | 12 kts | 239° |
| 2026-04-26 20:34 | -33.99220 | 25.60321 | 213 ft | 12 kts | 238° |
| 2026-04-26 20:34 | -33.99264 | 25.60237 | 215 ft | 12 kts | 239° |
| 2026-04-26 20:35 | -33.99252 | 25.60147 | 215 ft | 12 kts | 320° |
| 2026-04-26 20:35 | -33.99183 | 25.60095 | 220 ft | 12 kts | 330° |
| 2026-04-26 20:35 | -33.99113 | 25.60116 | 210 ft | 11 kts | 49° |
| 2026-04-26 20:35 | -33.99071 | 25.60195 | 212 ft | 11 kts | 57° |
| 2026-04-26 20:36 | -33.99030 | 25.60272 | 210 ft | 11 kts | 57° |
| 2026-04-26 20:36 | -33.98989 | 25.60346 | 213 ft | 10 kts | 57° |
| 2026-04-26 20:36 | -33.98951 | 25.60418 | 211 ft | 10 kts | 57° |
| 2026-04-26 20:36 | -33.98911 | 25.60490 | 217 ft | 11 kts | 57° |
| 2026-04-26 20:37 | -33.98859 | 25.60586 | 215 ft | 16 kts | 57° |
| 2026-04-26 20:37 | -33.98799 | 25.60696 | 217 ft | 15 kts | 57° |
| 2026-04-26 20:37 | -33.98742 | 25.60803 | 214 ft | 15 kts | 57° |
| 2026-04-26 20:37 | -33.98687 | 25.60905 | 216 ft | 14 kts | 58° |
| 2026-04-26 20:38 | -33.98638 | 25.60999 | 213 ft | 10 kts | 58° |
| 2026-04-26 20:38 | -33.98601 | 25.61071 | 211 ft | 10 kts | 58° |
| 2026-04-26 20:38 | -33.98566 | 25.61139 | 212 ft | 9 kts | 58° |
| 2026-04-26 20:38 | -33.98545 | 25.61167 | 216 ft | 4 kts | 19° |
| 2026-04-26 20:39 | -33.98517 | 25.61156 | 213 ft | 4 kts | 330° |
| 2026-04-26 20:39 | -33.98508 | 25.61149 | 214 ft | 2 kts | 328° |
| 2026-04-26 20:39 | -33.98502 | 25.61145 | 211 ft | 0 kts | 327° |
| 2026-04-26 20:39 | -33.98500 | 25.61144 | 211 ft | 1 kts | 327° |
| 2026-04-26 20:40 | -33.98499 | 25.61143 | 211 ft | 0 kts | 327° |